KFRM

Fairmont Municipal Airport

Fairmont, Minnesota, USA
METAR KFRM 191656Z AUTO 33014KT 9SM -SN CLR M20/M24 A3036 RMK AO2 SLP318 P0000 T12001244 FZRANO
Observed Flight Rules
Jan-19 @ 16:56 UTC (18 minutes ago) Visual Flight Rules
Wind Visibility Clouds Conditions
330° at 14 knots 9 miles
  • Clear skies
  • Light Snow
Temperatures Readings Precipitation
Current -20°C / -4°F
Dewpoint -24°C / -11°F
Humidity 71%
Altimeter 30.36" Hg
Pressure 1031.8 hPa
Elevation 354
Current Rain 0.01
METAR KFRM 191656Z AUTO 33014KT 9SM -SN CLR M20/M24 A3036 RMK AO2 SLP318 P0000 T12001244 FZRANO
Observed Flight Rules
Jan-19 @ 16:56 UTC
(18 minutes ago)
VFR
Wind Visibility
330° at 14 knots 9 miles
Clouds
  • Clear skies
Conditions
  • Light Snow
Temperature Dewpoint
-20°C / -4°F -24°C / -11°F
Humidity Altimeter Pressure
71% 30.36" Hg 1031.8 hPa
Current Rain
0.01